Time;durP1;ratioP1;P1;durP2;ratioP2;P2;SDS_P1;SDS_P2;PMS_P1;PMS_P2;Temp;Humidity;BMP_temperature;BMP_pressure;BME280_temperature;BME280_humidity;BME280_pressure;Samples;Min_cycle;Max_cycle;Signal;HPM_P1;HPM_P2
2022/08/17 00:01:11;;;;;;;25.95;17.25;;;20.80;99.90;;;;;;4964741;28;20046;-72
2022/08/17 00:03:40;;;;;;;29.08;18.38;;;20.80;99.90;;;;;;4962622;28;20145;-72
2022/08/17 00:06:13;;;;;;;26.70;16.40;;;20.70;99.90;;;;;;4966359;28;20046;-72
2022/08/17 00:08:48;;;;;;;29.58;18.65;;;20.70;99.90;;;;;;4979908;28;20054;-72
2022/08/17 00:11:27;;;;;;;27.23;17.52;;;20.70;99.90;;;;;;4959078;28;20134;-72
2022/08/17 00:14:04;;;;;;;28.02;18.17;;;20.70;99.90;;;;;;4986826;28;20038;-72
2022/08/17 00:16:34;;;;;;;28.55;18.02;;;20.70;99.90;;;;;;4968569;28;20061;-72
2022/08/17 00:19:04;;;;;;;28.17;18.10;;;20.70;99.90;;;;;;4984064;28;20034;-72
2022/08/17 00:21:32;;;;;;;26.63;17.35;;;20.60;99.90;;;;;;4966588;28;20043;-71
2022/08/17 00:23:58;;;;;;;26.52;18.05;;;20.60;99.90;;;;;;4991895;28;20069;-72
2022/08/17 00:26:27;;;;;;;;;;;20.60;99.90;;;;;;4978032;28;20053;-72
2022/08/17 00:28:53;;;;;;;30.70;18.88;;;20.60;99.90;;;;;;4956252;28;19922;-72
2022/08/17 00:31:19;;;;;;;;;;;20.50;99.90;;;;;;4964551;28;20141;-71
2022/08/17 00:33:44;;;;;;;26.63;17.20;;;20.50;99.90;;;;;;4962382;28;20028;-72
2022/08/17 00:36:11;;;;;;;24.95;16.92;;;20.50;99.90;;;;;;4952610;28;20042;-72
2022/08/17 00:38:37;;;;;;;30.83;18.70;;;20.50;99.90;;;;;;4968204;28;20072;-72
2022/08/17 00:41:06;;;;;;;31.27;19.30;;;20.50;99.90;;;;;;4965026;28;20039;-72
2022/08/17 00:43:43;;;;;;;31.38;19.10;;;20.50;99.90;;;;;;4967545;28;20050;-72
2022/08/17 00:46:32;;;;;;;31.83;18.75;;;20.40;99.90;;;;;;4967409;28;20050;-72
2022/08/17 00:48:59;;;;;;;31.02;18.98;;;20.40;99.90;;;;;;4992230;28;20042;-73
2022/08/17 00:51:59;;;;;;;32.38;20.40;;;20.40;99.90;;;;;;4957296;28;20112;-77
2022/08/17 00:54:38;;;;;;;28.95;18.40;;;20.40;99.90;;;;;;4988109;28;20046;-74
2022/08/17 00:57:58;;;;;;;30.00;19.65;;;20.40;99.90;;;;;;4972820;28;20416;-74
2022/08/17 01:00:38;;;;;;;30.85;18.63;;;20.30;99.90;;;;;;4967859;28;20538;-73
2022/08/17 01:03:32;;;;;;;29.88;19.52;;;20.30;99.90;;;;;;4937004;28;20865;-75
2022/08/17 01:06:05;;;;;;;29.27;18.13;;;20.40;99.90;;;;;;4943637;28;20064;-74
2022/08/17 01:08:35;;;;;;;34.60;19.50;;;20.20;99.90;;;;;;4969740;28;20412;-72
2022/08/17 01:11:16;;;;;;;36.08;20.30;;;20.20;99.90;;;;;;4930532;28;20082;-74
2022/08/17 01:13:43;;;;;;;33.70;19.35;;;20.20;99.90;;;;;;4913414;28;20043;-74
2022/08/17 01:16:15;;;;;;;32.28;18.63;;;20.20;99.90;;;;;;4979533;28;20399;-75
2022/08/17 01:18:44;;;;;;;32.35;18.65;;;20.10;99.90;;;;;;4972833;28;20260;-72
2022/08/17 01:21:26;;;;;;;32.92;18.95;;;20.10;99.90;;;;;;4986824;28;20058;-72
2022/08/17 01:23:52;;;;;;;29.90;18.20;;;20.10;99.90;;;;;;4970145;28;20080;-73
2022/08/17 01:26:20;;;;;;;31.58;19.33;;;20.10;99.90;;;;;;4964524;28;20043;-72
2022/08/17 01:28:49;;;;;;;31.38;19.10;;;20.00;99.90;;;;;;4970623;28;20330;-74
2022/08/17 01:31:16;;;;;;;30.13;18.92;;;20.00;99.90;;;;;;4963786;28;20403;-74
2022/08/17 01:33:42;;;;;;;29.05;18.33;;;20.00;99.90;;;;;;4954717;28;20441;-75
2022/08/17 01:36:08;;;;;;;;;;;19.90;99.90;;;;;;4971485;28;20520;-74
2022/08/17 01:38:36;;;;;;;30.92;16.98;;;19.90;99.90;;;;;;4955279;28;19918;-74
2022/08/17 01:41:11;;;;;;;27.02;16.77;;;19.80;99.90;;;;;;4967061;28;20144;-74
2022/08/17 01:43:48;;;;;;;26.73;17.02;;;19.80;99.90;;;;;;4827829;28;20353;-75
2022/08/17 01:46:27;;;;;;;25.10;16.75;;;19.80;99.90;;;;;;4848269;28;20046;-76
2022/08/17 01:48:55;;;;;;;26.98;16.38;;;19.70;99.90;;;;;;4958533;28;20050;-75
2022/08/17 01:51:22;;;;;;;27.45;16.80;;;19.70;99.90;;;;;;4968359;28;20038;-75
2022/08/17 01:53:56;;;;;;;25.88;16.60;;;19.70;99.90;;;;;;4985457;28;20042;-75
2022/08/17 01:56:24;;;;;;;31.40;17.95;;;19.70;99.90;;;;;;4972303;28;20061;-76
2022/08/17 01:58:51;;;;;;;30.33;17.58;;;19.60;99.90;;;;;;4962383;28;20076;-75
2022/08/17 02:01:22;;;;;;;26.35;15.82;;;19.60;99.90;;;;;;4910033;28;20445;-76
2022/08/17 02:03:52;;;;;;;31.35;17.23;;;19.60;99.90;;;;;;4803846;28;20451;-75
2022/08/17 02:06:20;;;;;;;26.17;16.40;;;19.60;99.90;;;;;;4913263;28;20049;-76
2022/08/17 02:08:47;;;;;;;26.73;16.83;;;19.60;99.90;;;;;;4972485;28;20278;-74
2022/08/17 02:11:18;;;;;;;24.05;15.13;;;19.60;99.90;;;;;;4953888;28;20034;-74
2022/08/17 02:13:50;;;;;;;24.00;15.80;;;19.50;99.90;;;;;;4967862;28;20050;-75
2022/08/17 02:16:18;;;;;;;24.98;15.80;;;19.50;99.90;;;;;;4968741;28;20068;-75
2022/08/17 02:18:45;;;;;;;21.17;14.45;;;19.50;99.90;;;;;;4958835;28;20042;-75
2022/08/17 02:21:12;;;;;;;21.10;13.77;;;19.50;99.90;;;;;;4971520;28;20053;-75
2022/08/17 02:23:46;;;;;;;20.70;14.00;;;19.50;99.90;;;;;;4788733;28;20430;-76
2022/08/17 02:26:13;;;;;;;21.65;14.50;;;19.50;99.90;;;;;;4847385;28;20046;-75
2022/08/17 02:28:39;;;;;;;20.80;13.43;;;19.50;99.90;;;;;;4972051;28;20042;-75
2022/08/17 02:31:11;;;;;;;19.98;13.93;;;19.40;99.90;;;;;;4967031;28;20389;-75
2022/08/17 02:33:38;;;;;;;21.30;13.82;;;19.40;99.90;;;;;;4973859;28;20149;-74
2022/08/17 02:36:07;;;;;;;20.73;14.02;;;19.40;99.90;;;;;;4891696;28;20354;-75
2022/08/17 02:38:35;;;;;;;19.52;13.57;;;19.30;99.90;;;;;;4968246;28;20038;-75
2022/08/17 02:41:04;;;;;;;21.77;13.77;;;19.30;99.90;;;;;;4845245;28;20828;-75
2022/08/17 02:43:34;;;;;;;25.02;14.25;;;19.30;99.90;;;;;;4800220;28;20042;-75
2022/08/17 02:46:03;;;;;;;22.75;14.85;;;19.30;99.90;;;;;;4893595;28;20043;-75
2022/08/17 02:48:29;;;;;;;23.63;13.63;;;19.20;99.90;;;;;;4968076;28;20464;-74
2022/08/17 02:50:55;;;;;;;20.98;14.57;;;19.20;99.90;;;;;;4978504;28;20046;-74
2022/08/17 02:53:21;;;;;;;21.90;14.30;;;19.20;99.90;;;;;;4987535;28;20358;-75
2022/08/17 02:55:46;;;;;;;23.33;15.00;;;19.20;99.90;;;;;;4970133;28;20044;-74
2022/08/17 02:58:13;;;;;;;20.88;14.18;;;19.20;99.90;;;;;;4985182;28;20051;-74
2022/08/17 03:00:40;;;;;;;;;;;19.20;99.90;;;;;;4963885;28;20092;-74
2022/08/17 03:03:08;;;;;;;22.25;13.73;;;19.10;99.90;;;;;;4987477;28;20006;-74
2022/08/17 03:05:36;;;;;;;21.38;14.52;;;19.10;99.90;;;;;;4968982;28;20066;-74
2022/08/17 03:08:03;;;;;;;23.30;14.32;;;19.10;99.90;;;;;;4966208;28;20326;-75
2022/08/17 03:10:29;;;;;;;23.40;15.32;;;19.10;99.90;;;;;;4966789;28;20050;-75
2022/08/17 03:12:55;;;;;;;;;;;19.10;99.90;;;;;;4944961;28;20085;-75
2022/08/17 03:15:26;;;;;;;20.65;13.82;;;19.10;99.90;;;;;;4956201;28;20194;-74
2022/08/17 03:17:53;;;;;;;20.83;13.98;;;19.10;99.90;;;;;;4971202;28;20398;-74
2022/08/17 03:20:20;;;;;;;22.63;13.52;;;19.10;99.90;;;;;;4967194;28;20046;-75
2022/08/17 03:22:50;;;;;;;21.63;14.15;;;19.10;99.90;;;;;;4970764;28;20145;-75
2022/08/17 03:25:19;;;;;;;20.52;12.80;;;19.00;99.90;;;;;;4966425;28;20050;-75
2022/08/17 03:27:44;;;;;;;19.67;13.30;;;19.10;99.90;;;;;;4988927;28;20111;-75
2022/08/17 03:30:13;;;;;;;20.92;14.48;;;19.10;99.90;;;;;;4979842;28;20133;-74
2022/08/17 03:32:46;;;;;;;21.75;14.45;;;19.00;99.90;;;;;;4981784;28;20510;-75
2022/08/17 03:35:14;;;;;;;24.45;14.85;;;19.10;99.90;;;;;;4979639;28;20506;-75
2022/08/17 03:37:41;;;;;;;23.17;14.13;;;19.10;99.90;;;;;;4965089;28;20137;-75
2022/08/17 03:40:07;;;;;;;;;;;19.00;99.90;;;;;;4960642;28;20045;-74
2022/08/17 03:42:34;;;;;;;21.23;14.10;;;19.10;99.90;;;;;;4969091;28;19925;-75
2022/08/17 03:45:01;;;;;;;20.77;13.43;;;19.00;99.90;;;;;;4965033;28;20042;-74
2022/08/17 03:58:25;;;;;;;18.45;12.60;;;19.00;99.90;;;;;;5004503;28;20041;-75
2022/08/17 04:00:52;;;;;;;;;;;19.00;99.90;;;;;;5023724;28;20041;-75
2022/08/17 04:03:17;;;;;;;19.45;13.05;;;19.00;99.90;;;;;;5013318;28;19916;-75
2022/08/17 04:05:43;;;;;;;21.38;14.30;;;19.00;99.90;;;;;;5005122;28;20139;-75
2022/08/17 04:08:12;;;;;;;21.42;13.02;;;19.00;99.90;;;;;;5011055;28;20045;-75
2022/08/17 04:10:38;;;;;;;21.08;14.07;;;19.00;99.90;;;;;;5008433;28;20057;-75
2022/08/17 04:13:04;;;;;;;22.60;13.98;;;19.00;99.90;;;;;;5002006;28;20781;-75
2022/08/17 04:15:32;;;;;;;19.48;13.85;;;19.00;99.90;;;;;;4992646;28;20033;-75
2022/08/17 04:17:58;;;;;;;21.13;13.18;;;19.00;99.90;;;;;;5025658;28;20124;-75
2022/08/17 04:20:24;;;;;;;;;;;18.90;99.90;;;;;;5008726;28;20510;-75
2022/08/17 04:22:59;;;;;;;20.38;12.82;;;18.90;99.90;;;;;;5011407;28;19917;-75
2022/08/17 04:25:26;;;;;;;21.90;13.23;;;18.90;99.90;;;;;;5026885;28;20041;-75
2022/08/17 04:27:52;;;;;;;18.83;12.88;;;18.90;99.90;;;;;;5009390;28;20049;-75
2022/08/17 04:30:19;;;;;;;21.23;12.32;;;18.90;99.90;;;;;;5004283;28;20048;-75
2022/08/17 04:32:53;;;;;;;19.27;13.23;;;18.90;99.90;;;;;;4988132;28;20518;-75
2022/08/17 04:35:23;;;;;;;21.70;13.75;;;18.90;99.90;;;;;;5013787;28;20287;-75
2022/08/17 04:37:49;;;;;;;19.88;12.77;;;18.90;99.90;;;;;;5025444;28;20046;-75
2022/08/17 04:43:07;;;;;;;24.83;12.88;;;18.90;99.90;;;;;;5023196;28;20057;-75
2022/08/17 04:45:37;;;;;;;18.25;12.48;;;18.90;99.90;;;;;;5006697;28;20090;-76
2022/08/17 04:48:03;;;;;;;20.20;13.95;;;18.80;99.90;;;;;;5005044;28;20037;-76
2022/08/17 04:50:28;;;;;;;17.52;12.40;;;18.80;99.90;;;;;;5005812;28;20045;-76
2022/08/17 04:52:54;;;;;;;20.70;14.25;;;18.80;99.90;;;;;;5003351;28;20052;-75
2022/08/17 04:55:20;;;;;;;19.85;12.88;;;18.80;99.90;;;;;;5008260;28;20037;-75
2022/08/17 04:57:46;;;;;;;;;;;18.80;99.90;;;;;;5020604;28;20077;-75
2022/08/17 05:00:12;;;;;;;16.95;11.73;;;18.90;99.90;;;;;;5005126;28;19964;-75
2022/08/17 05:02:48;;;;;;;18.45;12.57;;;18.90;99.90;;;;;;5006427;28;20049;-75
2022/08/17 05:05:29;;;;;;;20.13;12.50;;;18.90;99.90;;;;;;5006054;28;20073;-75
2022/08/17 05:07:57;;;;;;;20.25;12.55;;;18.90;99.90;;;;;;5023398;28;20033;-76
2022/08/17 05:10:26;;;;;;;17.40;12.50;;;18.90;99.90;;;;;;5020572;28;20048;-75
2022/08/17 05:13:00;;;;;;;19.17;11.82;;;18.90;99.90;;;;;;5025276;28;20124;-75
2022/08/17 05:15:27;;;;;;;16.35;11.40;;;18.90;99.90;;;;;;5006052;28;20057;-75
2022/08/17 05:17:53;;;;;;;17.13;11.05;;;18.90;99.90;;;;;;5007682;28;20086;-75
2022/08/17 05:20:19;;;;;;;;;;;19.00;99.90;;;;;;5010537;28;20058;-75
2022/08/17 05:22:50;;;;;;;15.87;11.60;;;19.00;99.90;;;;;;5012002;28;19921;-76
2022/08/17 05:25:21;;;;;;;17.17;12.15;;;19.00;99.90;;;;;;5021190;28;20123;-75
2022/08/17 05:27:47;;;;;;;17.90;12.65;;;19.00;99.90;;;;;;5002806;28;20072;-75
2022/08/17 05:30:14;;;;;;;20.77;12.13;;;19.00;99.90;;;;;;5010466;28;20061;-75
2022/08/17 05:32:53;;;;;;;17.85;12.05;;;19.00;99.90;;;;;;5027652;28;20046;-75
2022/08/17 05:35:20;;;;;;;18.70;12.25;;;19.00;99.90;;;;;;5029193;28;20037;-74
2022/08/17 05:37:46;;;;;;;18.33;12.52;;;19.00;99.90;;;;;;5004767;28;20088;-74
2022/08/17 05:40:12;;;;;;;19.88;10.85;;;19.00;99.90;;;;;;5009027;28;20085;-73
2022/08/17 05:42:41;;;;;;;16.85;11.27;;;19.00;99.90;;;;;;5026363;28;20126;-74
2022/08/17 05:45:07;;;;;;;16.85;11.50;;;19.00;99.90;;;;;;5008419;28;20708;-74
2022/08/17 05:47:38;;;;;;;20.08;13.27;;;19.00;99.90;;;;;;5012386;28;20042;-80
2022/08/17 05:50:06;;;;;;;19.40;13.10;;;19.00;99.90;;;;;;5024955;28;20037;-78
2022/08/17 05:52:56;;;;;;;23.13;13.80;;;19.10;99.90;;;;;;5029559;28;20041;-76
2022/08/17 05:55:43;;;;;;;20.35;13.25;;;19.10;99.90;;;;;;5021986;28;20075;-74
2022/08/17 05:58:22;;;;;;;;;;;19.10;99.90;;;;;;5005611;28;20080;-73
2022/08/17 06:01:06;;;;;;;21.58;13.25;;;19.10;99.90;;;;;;5005513;28;20022;-74
2022/08/17 06:03:39;;;;;;;22.52;14.88;;;19.10;99.90;;;;;;5026513;28;20045;-74
2022/08/17 06:06:29;;;;;;;22.70;14.10;;;19.10;99.90;;;;;;5012168;28;20041;-74
2022/08/17 06:09:10;;;;;;;26.52;14.55;;;19.10;99.90;;;;;;5004946;28;20903;-74
2022/08/17 06:11:52;;;;;;;27.15;15.32;;;19.10;99.90;;;;;;5024937;28;20455;-74
2022/08/17 06:14:48;;;;;;;24.15;14.73;;;19.10;99.90;;;;;;5000376;28;20084;-75
2022/08/17 06:17:21;;;;;;;29.02;16.30;;;19.20;99.90;;;;;;5025479;28;20237;-75
2022/08/17 06:19:53;;;;;;;23.83;14.55;;;19.20;99.90;;;;;;5027261;28;20124;-74
2022/08/17 06:22:23;;;;;;;28.25;15.05;;;19.30;99.90;;;;;;4995371;28;20060;-74
2022/08/17 06:25:12;;;;;;;26.75;16.17;;;19.20;99.90;;;;;;5008247;28;20054;-75
2022/08/17 06:27:47;;;;;;;26.02;15.70;;;19.40;99.90;;;;;;4996320;28;20426;-75
2022/08/17 06:30:15;;;;;;;28.98;16.92;;;19.50;99.90;;;;;;5019314;28;20072;-74
2022/08/17 06:32:46;;;;;;;29.35;16.60;;;19.40;99.90;;;;;;5015377;28;20094;-75
2022/08/17 06:35:15;;;;;;;28.15;16.23;;;19.60;99.90;;;;;;5009544;28;20045;-75
2022/08/17 06:38:22;;;;;;;26.25;16.95;;;19.60;99.90;;;;;;5024594;28;20045;-75
2022/08/17 06:41:06;;;;;;;29.80;18.20;;;19.60;99.90;;;;;;4936287;28;20127;-75
2022/08/17 06:43:56;;;;;;;27.85;17.02;;;19.60;99.90;;;;;;5009353;28;20092;-75
2022/08/17 06:46:35;;;;;;;27.33;18.02;;;19.70;99.90;;;;;;5016021;28;20060;-75
2022/08/17 06:49:25;;;;;;;29.85;17.60;;;19.70;99.90;;;;;;4994398;28;20037;-74
2022/08/17 06:51:56;;;;;;;26.98;17.58;;;19.70;99.90;;;;;;5027150;28;20056;-75
2022/08/17 06:54:57;;;;;;;27.13;16.55;;;19.70;99.90;;;;;;4990473;28;20071;-75
2022/08/17 06:57:27;;;;;;;27.25;17.13;;;19.70;99.90;;;;;;5018955;28;20045;-74
2022/08/17 06:59:59;;;;;;;25.77;16.33;;;19.80;99.90;;;;;;5011269;28;20041;-75
2022/08/17 07:02:38;;;;;;;24.75;15.95;;;19.80;99.90;;;;;;5026910;28;20052;-75
2022/08/17 07:05:05;;;;;;;26.85;17.48;;;19.80;99.90;;;;;;5021918;28;20025;-75
2022/08/17 07:10:19;;;;;;;26.98;17.05;;;19.80;99.90;;;;;;5025370;28;20060;-75
2022/08/17 07:12:45;;;;;;;26.67;17.25;;;19.90;99.90;;;;;;5008320;28;20041;-75
2022/08/17 07:15:16;;;;;;;25.23;16.50;;;19.80;99.90;;;;;;5005657;28;20125;-75
2022/08/17 07:17:44;;;;;;;25.50;17.10;;;19.80;99.90;;;;;;5008600;28;20118;-75
2022/08/17 07:20:14;;;;;;;25.00;16.25;;;19.80;99.90;;;;;;5008577;28;20046;-75
2022/08/17 07:23:02;;;;;;;25.20;17.30;;;19.90;99.90;;;;;;5009598;28;20045;-75
2022/08/17 07:25:30;;;;;;;26.35;17.27;;;19.80;99.90;;;;;;5006185;28;20060;-75
2022/08/17 07:27:59;;;;;;;25.60;16.58;;;19.80;99.90;;;;;;5015411;28;20128;-74
2022/08/17 07:30:29;;;;;;;26.95;16.42;;;19.80;99.90;;;;;;5023500;28;20430;-77
2022/08/17 07:33:28;;;;;;;26.05;16.65;;;19.80;99.90;;;;;;5004291;28;20108;-74
2022/08/17 07:35:56;;;;;;;24.45;15.35;;;19.80;99.90;;;;;;5004033;28;20039;-77
2022/08/17 07:38:29;;;;;;;27.35;16.63;;;19.80;99.90;;;;;;5026522;28;20084;-78
2022/08/17 07:40:56;;;;;;;25.23;16.70;;;19.80;99.90;;;;;;4988712;28;20068;-74
2022/08/17 07:43:26;;;;;;;28.33;17.20;;;19.90;99.90;;;;;;5008367;28;20335;-75
2022/08/17 07:49:20;;;;;;;24.20;15.93;;;19.90;99.90;;;;;;5011328;28;20045;-75
2022/08/17 07:51:46;;;;;;;23.98;16.63;;;19.90;99.90;;;;;;5009896;28;20479;-75
2022/08/17 07:54:16;;;;;;;27.25;16.48;;;20.00;99.90;;;;;;5023165;28;20041;-75
2022/08/17 07:56:59;;;;;;;28.30;18.25;;;20.00;99.90;;;;;;5024686;28;20049;-74
2022/08/17 07:59:35;;;;;;;23.58;16.02;;;20.00;99.90;;;;;;5017680;28;20128;-75
2022/08/17 08:02:21;;;;;;;26.27;17.02;;;20.10;99.90;;;;;;5008820;28;20506;-74
2022/08/17 08:05:04;;;;;;;28.83;17.27;;;20.20;99.90;;;;;;5006156;28;20068;-74
2022/08/17 08:07:49;;;;;;;30.17;18.25;;;20.20;99.90;;;;;;5004843;28;20646;-74
2022/08/17 08:10:41;;;;;;;26.38;17.27;;;20.10;99.90;;;;;;5007757;28;20055;-75
2022/08/17 08:13:19;;;;;;;28.77;18.42;;;20.20;99.90;;;;;;5029167;28;20037;-75
2022/08/17 08:15:54;;;;;;;30.50;18.80;;;20.20;99.90;;;;;;5007369;28;20328;-75
2022/08/17 08:18:38;;;;;;;29.45;18.70;;;20.20;99.90;;;;;;5014146;28;20037;-75
2022/08/17 08:21:10;;;;;;;27.67;16.80;;;20.30;99.90;;;;;;5014093;28;20037;-75
2022/08/17 08:23:51;;;;;;;28.45;18.52;;;20.30;99.90;;;;;;5005740;28;20131;-75
2022/08/17 08:26:25;;;;;;;26.38;17.10;;;20.30;99.90;;;;;;5010268;28;20055;-75
2022/08/17 08:28:59;;;;;;;29.08;17.55;;;20.30;99.90;;;;;;5023497;28;20071;-75
2022/08/17 08:31:27;;;;;;;29.02;17.63;;;20.30;99.90;;;;;;5007261;28;20128;-75
2022/08/17 08:34:12;;;;;;;30.10;19.00;;;20.30;99.90;;;;;;5007319;28;20140;-75
2022/08/17 08:36:50;;;;;;;32.58;17.70;;;20.30;99.90;;;;;;5012308;28;20104;-75
2022/08/17 08:39:28;;;;;;;27.40;16.90;;;20.30;99.90;;;;;;5010807;28;20446;-75
2022/08/17 08:42:13;;;;;;;29.00;18.20;;;20.30;99.90;;;;;;4999060;28;20040;-75
2022/08/17 08:45:12;;;;;;;30.67;18.67;;;20.40;99.90;;;;;;5003159;28;20145;-75
2022/08/17 08:47:47;;;;;;;25.95;16.38;;;20.40;99.90;;;;;;5027067;28;20514;-75
2022/08/17 08:50:37;;;;;;;29.10;17.55;;;20.50;99.90;;;;;;5004294;28;20647;-75
2022/08/17 08:53:17;;;;;;;26.92;17.83;;;20.50;99.90;;;;;;5029744;28;20041;-75
2022/08/17 08:56:10;;;;;;;28.17;17.55;;;20.50;99.90;;;;;;5023134;28;20083;-75
2022/08/17 08:58:47;;;;;;;32.28;19.15;;;20.50;99.90;;;;;;5006005;28;20048;-74
2022/08/17 09:01:31;;;;;;;30.15;18.13;;;20.50;99.90;;;;;;5022224;28;20048;-75
2022/08/17 09:04:02;;;;;;;32.30;18.63;;;20.60;99.90;;;;;;5006667;28;20037;-75
2022/08/17 09:06:38;;;;;;;30.67;18.80;;;20.50;99.90;;;;;;5023651;28;20049;-75
2022/08/17 09:09:13;;;;;;;34.00;19.02;;;20.60;99.90;;;;;;5023705;28;20046;-75
2022/08/17 09:12:06;;;;;;;33.30;18.77;;;20.70;99.90;;;;;;5006996;28;20159;-75
2022/08/17 09:15:07;;;;;;;30.30;19.00;;;20.70;99.90;;;;;;5023844;28;20053;-76
2022/08/17 09:18:00;;;;;;;29.13;20.10;;;20.80;99.90;;;;;;4995895;28;20049;-75
2022/08/17 09:20:32;;;;;;;35.00;20.35;;;20.90;99.90;;;;;;5003138;28;20053;-75
2022/08/17 09:23:06;;;;;;;28.42;19.17;;;20.90;99.90;;;;;;4999711;28;20037;-76
2022/08/17 09:25:44;;;;;;;29.90;18.98;;;21.00;99.90;;;;;;5012291;28;20053;-75
2022/08/17 09:28:35;;;;;;;33.28;20.83;;;21.00;99.90;;;;;;4985254;28;20637;-75
2022/08/17 09:31:14;;;;;;;31.27;19.48;;;21.00;99.90;;;;;;5030027;28;20053;-76
2022/08/17 09:33:45;;;;;;;29.08;20.05;;;21.00;99.90;;;;;;5019693;28;20061;-75
2022/08/17 09:36:21;;;;;;;27.95;18.15;;;21.00;99.90;;;;;;5015877;28;20096;-75
2022/08/17 09:39:04;;;;;;;27.65;18.95;;;21.00;99.90;;;;;;5026168;28;20042;-75
2022/08/17 09:41:54;;;;;;;31.63;19.92;;;21.00;99.90;;;;;;5021984;28;20097;-75
2022/08/17 09:44:20;;;;;;;30.38;18.92;;;21.00;99.90;;;;;;5001872;28;20041;-75
2022/08/17 09:46:54;;;;;;;;;;;21.10;99.90;;;;;;5009415;28;20561;-75
2022/08/17 09:52:26;;;;;;;25.85;17.63;;;21.10;99.90;;;;;;4978820;28;20200;-72
2022/08/17 09:54:54;;;;;;;26.38;16.15;;;21.10;99.90;;;;;;4967178;28;20065;-72
2022/08/17 09:57:23;;;;;;;25.85;16.52;;;21.10;99.90;;;;;;4984647;28;20492;-71
2022/08/17 10:00:17;;;;;;;23.13;16.08;;;21.10;99.90;;;;;;4966667;28;20101;-72
2022/08/17 10:02:58;;;;;;;23.52;15.18;;;21.20;99.90;;;;;;4966966;28;20104;-71
2022/08/17 10:05:36;;;;;;;25.10;15.57;;;21.20;99.90;;;;;;4994004;28;20432;-72
2022/08/17 10:08:14;;;;;;;23.27;16.65;;;21.30;99.90;;;;;;4985662;28;20064;-72
2022/08/17 10:10:54;;;;;;;19.42;14.73;;;21.40;99.90;;;;;;4998919;28;20169;-71
2022/08/17 10:13:59;;;;;;;23.90;15.40;;;21.50;99.90;;;;;;4996620;28;20056;-71
2022/08/17 10:16:42;;;;;;;21.63;15.32;;;21.60;99.90;;;;;;5005240;28;20506;-71
2022/08/17 10:19:35;;;;;;;18.48;14.13;;;21.70;99.90;;;;;;5000056;28;20041;-71
2022/08/17 10:27:58;;;;;;;;;;;21.70;99.90;;;;;;4982156;28;20045;-70
2022/08/17 10:30:26;;;;;;;15.23;11.00;;;21.70;99.90;;;;;;4985768;28;19928;-69
2022/08/17 10:33:05;;;;;;;14.95;11.32;;;21.70;99.90;;;;;;5004917;28;20057;-69
2022/08/17 10:35:34;;;;;;;16.17;9.82;;;21.70;99.90;;;;;;5002365;28;20558;-70
2022/08/17 10:38:27;;;;;;;11.65;8.88;;;21.70;99.90;;;;;;4985489;28;20121;-71
2022/08/17 10:41:22;;;;;;;12.35;9.20;;;21.60;99.90;;;;;;5005409;28;20049;-70
2022/08/17 10:44:02;;;;;;;11.48;8.18;;;21.60;99.90;;;;;;4980757;28;20519;-71
2022/08/17 10:47:00;;;;;;;13.68;9.05;;;21.50;99.90;;;;;;5010945;28;20105;-70
2022/08/17 10:49:48;;;;;;;12.80;8.65;;;21.50;99.90;;;;;;5006786;28;20141;-70
2022/08/17 10:52:24;;;;;;;11.50;8.98;;;21.50;99.90;;;;;;5002564;28;20049;-70
2022/08/17 10:54:50;;;;;;;16.95;10.60;;;21.50;99.90;;;;;;4979732;28;20064;-70
2022/08/17 10:57:38;;;;;;;13.82;10.00;;;21.50;99.90;;;;;;5009083;28;20042;-70
2022/08/17 11:00:15;;;;;;;13.57;9.52;;;21.60;99.90;;;;;;4990270;28;20152;-70
2022/08/17 11:02:48;;;;;;;14.30;9.98;;;21.60;99.90;;;;;;5010415;28;20081;-71
2022/08/17 11:05:57;;;;;;;13.73;9.23;;;21.60;99.90;;;;;;5009094;28;20042;-70
2022/08/17 11:08:42;;;;;;;14.82;9.63;;;21.60;99.90;;;;;;5001423;28;20103;-70
2022/08/17 11:11:38;;;;;;;11.57;8.50;;;21.60;99.90;;;;;;4986578;28;20129;-70
2022/08/17 11:14:15;;;;;;;11.32;8.40;;;21.70;99.90;;;;;;4989659;28;20349;-70
2022/08/17 11:17:03;;;;;;;13.60;8.85;;;21.70;99.90;;;;;;4998537;28;20159;-70
2022/08/17 11:19:41;;;;;;;11.98;8.52;;;21.70;99.90;;;;;;5003495;28;20038;-70
2022/08/17 11:22:44;;;;;;;10.43;7.25;;;21.80;99.90;;;;;;4979315;28;20038;-70
2022/08/17 11:25:18;;;;;;;11.07;7.38;;;21.80;99.90;;;;;;4983604;28;20125;-69
2022/08/17 11:27:52;;;;;;;9.68;6.53;;;21.80;99.90;;;;;;5000464;28;20037;-70
2022/08/17 11:30:55;;;;;;;8.95;7.00;;;21.90;99.90;;;;;;5004914;28;20073;-69
2022/08/17 11:33:33;;;;;;;9.65;7.35;;;21.80;99.90;;;;;;4999788;28;20046;-69
2022/08/17 11:36:09;;;;;;;10.80;7.60;;;21.90;99.90;;;;;;4984822;28;20048;-69
2022/08/17 11:39:05;;;;;;;12.93;8.30;;;21.90;99.90;;;;;;5003573;28;20033;-69
2022/08/17 11:41:56;;;;;;;10.70;7.65;;;21.90;99.90;;;;;;4985648;28;20049;-69
2022/08/17 11:44:37;;;;;;;10.73;8.13;;;22.00;99.90;;;;;;4981120;28;20155;-69
2022/08/17 11:53:01;;;;;;;14.40;10.35;;;22.20;99.90;;;;;;4980903;28;20042;-69
2022/08/17 11:55:27;;;;;;;;;;;22.30;99.90;;;;;;5005442;28;20041;-69
2022/08/17 11:58:00;;;;;;;16.65;10.05;;;22.30;99.90;;;;;;4985396;28;19996;-69
2022/08/17 12:00:44;;;;;;;12.70;9.38;;;22.40;99.90;;;;;;5002114;28;20054;-69
2022/08/17 12:03:32;;;;;;;14.68;8.90;;;22.50;99.90;;;;;;5000644;28;20049;-69
2022/08/17 12:06:16;;;;;;;15.48;8.82;;;22.60;99.90;;;;;;5004223;28;20092;-71
2022/08/17 12:08:46;;;;;;;15.07;8.48;;;22.70;99.90;;;;;;4999825;28;20056;-69
2022/08/17 12:11:40;;;;;;;12.32;8.45;;;22.80;99.90;;;;;;5004209;28;20120;-69
2022/08/17 12:14:07;;;;;;;11.15;7.60;;;22.80;99.90;;;;;;4982006;28;20110;-69
2022/08/17 12:16:33;;;;;;;11.23;8.23;;;22.80;99.90;;;;;;5002349;28;20052;-69
2022/08/17 12:19:01;;;;;;;;;;;22.90;99.90;;;;;;5003728;28;20582;-69
2022/08/17 12:21:39;;;;;;;12.68;7.97;;;22.80;99.90;;;;;;5002350;28;20328;-70
2022/08/17 12:24:20;;;;;;;12.63;8.60;;;22.90;99.90;;;;;;4977060;28;20133;-69
2022/08/17 12:26:52;;;;;;;12.60;8.38;;;22.90;99.90;;;;;;4983314;28;20438;-69
2022/08/17 12:29:18;;;;;;;12.02;9.10;;;22.90;99.90;;;;;;5003672;28;20045;-69
2022/08/17 12:31:46;;;;;;;;;;;22.90;99.90;;;;;;5004021;28;20109;-69
2022/08/17 12:34:39;;;;;;;13.25;9.35;;;22.90;99.90;;;;;;4998331;28;19944;-69
2022/08/17 12:37:17;;;;;;;16.73;10.23;;;22.90;99.90;;;;;;4976320;28;20056;-69
2022/08/17 12:40:07;;;;;;;16.30;10.43;;;22.80;99.90;;;;;;4982596;28;20480;-69
2022/08/17 12:42:36;;;;;;;14.77;10.63;;;22.80;99.90;;;;;;4996416;28;20042;-69
2022/08/17 12:45:20;;;;;;;17.65;10.88;;;22.80;99.90;;;;;;4999751;28;20057;-69
2022/08/17 12:47:46;;;;;;;14.38;10.38;;;22.80;99.90;;;;;;4984581;28;20061;-69
2022/08/17 12:50:13;;;;;;;;;;;22.80;99.90;;;;;;4982829;28;20368;-68
2022/08/17 12:52:41;;;;;;;16.13;11.05;;;22.70;99.90;;;;;;5000359;28;19927;-69
2022/08/17 12:55:21;;;;;;;15.77;11.90;;;22.80;99.90;;;;;;5000131;28;20042;-69
2022/08/17 12:57:50;;;;;;;15.48;10.63;;;22.80;99.90;;;;;;4984631;28;20402;-70
2022/08/17 13:00:20;;;;;;;19.15;11.18;;;22.80;99.90;;;;;;4985315;28;20555;-69
2022/08/17 13:03:00;;;;;;;18.15;12.45;;;22.80;99.90;;;;;;4999651;28;20424;-70
2022/08/17 13:05:39;;;;;;;15.40;11.13;;;22.70;99.90;;;;;;5001814;28;20080;-69
2022/08/17 13:08:18;;;;;;;15.73;10.73;;;22.70;99.90;;;;;;4981894;28;20049;-69
2022/08/17 13:10:55;;;;;;;15.60;10.73;;;22.70;99.90;;;;;;4966206;28;20049;-69
2022/08/17 13:13:33;;;;;;;16.73;10.35;;;22.70;99.90;;;;;;4981629;28;20042;-70
2022/08/17 13:16:16;;;;;;;14.07;9.73;;;22.70;99.90;;;;;;4984594;28;20588;-69
2022/08/17 13:18:53;;;;;;;17.15;11.02;;;22.60;99.90;;;;;;4984942;28;20133;-70
2022/08/17 13:21:18;;;;;;;13.80;10.25;;;22.60;99.90;;;;;;4998489;28;20122;-70
2022/08/17 13:23:55;;;;;;;;;;;22.60;99.90;;;;;;4981088;28;20173;-70
2022/08/17 13:26:45;;;;;;;13.23;9.85;;;22.50;99.90;;;;;;4996901;28;20225;-71
2022/08/17 13:29:22;;;;;;;12.25;9.07;;;22.50;99.90;;;;;;5010806;28;20038;-70
2022/08/17 13:31:51;;;;;;;15.27;9.93;;;22.30;99.90;;;;;;4985191;28;20197;-70
2022/08/17 13:34:22;;;;;;;14.25;10.10;;;22.40;99.90;;;;;;4998350;28;20113;-70
2022/08/17 13:36:50;;;;;;;18.05;9.52;;;22.40;99.90;;;;;;4983075;28;20089;-70
2022/08/17 13:39:21;;;;;;;15.32;10.15;;;22.40;99.90;;;;;;4982402;28;20053;-70
2022/08/17 13:41:49;;;;;;;15.07;9.95;;;22.40;99.90;;;;;;4985023;28;20038;-70
2022/08/17 13:44:33;;;;;;;12.77;9.27;;;22.40;99.90;;;;;;4999656;28;20042;-70
2022/08/17 13:47:00;;;;;;;14.63;9.23;;;22.40;99.90;;;;;;4978693;28;20249;-70